createdAt,value
2019-06-08T00:00:49.176Z,19.10
2019-06-08T00:03:18.580Z,19.10
2019-06-08T00:05:47.158Z,19.00
2019-06-08T00:08:16.763Z,19.10
2019-06-08T00:10:45.411Z,19.10
2019-06-08T00:13:15.086Z,19.10
2019-06-08T00:15:43.677Z,19.10
2019-06-08T00:18:13.164Z,19.10
2019-06-08T00:20:41.651Z,19.00
2019-06-08T00:23:10.087Z,19.00
2019-06-08T00:25:38.541Z,18.90
2019-06-08T00:28:06.982Z,18.90
2019-06-08T00:30:35.462Z,18.80
2019-06-08T00:33:03.898Z,18.90
2019-06-08T00:35:32.360Z,19.00
2019-06-08T00:38:00.799Z,19.00
2019-06-08T00:40:29.255Z,18.90
2019-06-08T00:42:57.704Z,18.90
2019-06-08T00:45:26.174Z,18.90
2019-06-08T00:47:54.610Z,18.80
2019-06-08T00:50:25.165Z,18.80
2019-06-08T00:52:53.729Z,18.80
2019-06-08T00:55:23.665Z,18.80
2019-06-08T00:57:52.303Z,18.80
2019-06-08T01:00:22.401Z,18.80
2019-06-08T01:02:51.135Z,18.80
2019-06-08T01:05:19.959Z,18.90
2019-06-08T01:07:48.484Z,19.00
2019-06-08T01:10:17.260Z,18.90
2019-06-08T01:12:45.732Z,19.00
2019-06-08T01:15:15.076Z,19.00
2019-06-08T01:17:43.595Z,19.10
2019-06-08T01:20:12.279Z,19.30
2019-06-08T01:22:40.731Z,19.30
2019-06-08T01:25:09.238Z,19.40
2019-06-08T01:27:37.703Z,19.50
2019-06-08T01:30:10.724Z,19.60
2019-06-08T01:32:39.178Z,19.70
2019-06-08T01:35:07.863Z,19.70
2019-06-08T01:37:36.319Z,19.80
2019-06-08T01:40:07.154Z,19.80
2019-06-08T01:42:35.609Z,19.70
2019-06-08T01:45:06.275Z,19.80
2019-06-08T01:47:34.729Z,19.70
2019-06-08T01:50:03.441Z,19.70
2019-06-08T01:52:32.981Z,19.80
2019-06-08T01:55:01.521Z,19.70
2019-06-08T01:57:31.460Z,19.70
2019-06-08T02:00:00.056Z,19.70
2019-06-08T02:02:29.902Z,19.80
2019-06-08T02:04:58.436Z,19.60
2019-06-08T02:07:26.880Z,19.60
2019-06-08T02:09:55.323Z,19.40
2019-06-08T02:12:24.801Z,19.30
2019-06-08T02:14:53.291Z,19.20
2019-06-08T02:17:21.739Z,19.00
2019-06-08T02:19:50.173Z,18.90
2019-06-08T02:22:18.635Z,18.80
2019-06-08T02:24:47.075Z,18.90
2019-06-08T02:27:15.518Z,18.80
2019-06-08T02:29:43.944Z,18.70
2019-06-08T02:32:12.390Z,18.60
2019-06-08T02:34:40.826Z,18.50
2019-06-08T02:37:09.247Z,18.50
2019-06-08T02:39:38.523Z,18.50
2019-06-08T02:42:08.023Z,18.50
2019-06-08T02:44:36.482Z,18.40
2019-06-08T02:47:04.981Z,18.30
2019-06-08T02:49:35.245Z,18.20
2019-06-08T02:52:03.822Z,18.20
2019-06-08T02:54:34.716Z,18.10
2019-06-08T02:57:04.902Z,18.00
2019-06-08T02:59:38.025Z,18.10
2019-06-08T03:02:07.387Z,18.10
2019-06-08T03:04:41.079Z,18.10
2019-06-08T03:07:10.545Z,18.00
2019-06-08T03:09:40.859Z,18.00
2019-06-08T03:12:09.582Z,18.00
2019-06-08T03:14:40.183Z,17.90
2019-06-08T03:17:09.735Z,17.90
2019-06-08T03:19:39.882Z,17.80
2019-06-08T03:22:10.769Z,17.80
2019-06-08T03:24:38.774Z,17.90
2019-06-08T03:27:07.310Z,17.80
2019-06-08T03:29:37.271Z,17.80
2019-06-08T03:32:05.930Z,17.80
2019-06-08T03:34:35.710Z,17.80
2019-06-08T03:37:04.519Z,17.80
2019-06-08T03:39:34.965Z,17.80
2019-06-08T03:42:03.129Z,17.70
2019-06-08T03:44:31.580Z,17.70
2019-06-08T03:47:00.012Z,17.60
2019-06-08T03:49:41.179Z,17.60
2019-06-08T03:51:59.186Z,17.60
2019-06-08T03:54:27.631Z,17.70
2019-06-08T03:56:56.054Z,17.60
2019-06-08T03:59:24.513Z,17.40
2019-06-08T04:01:53.027Z,17.30
2019-06-08T04:04:21.485Z,17.30
2019-06-08T04:06:50.137Z,17.10
2019-06-08T04:09:18.644Z,16.90
2019-06-08T04:11:47.073Z,16.70
2019-06-08T04:14:15.526Z,16.80
2019-06-08T04:16:44.486Z,16.90
2019-06-08T04:19:14.130Z,16.80
2019-06-08T04:21:44.149Z,16.80
2019-06-08T04:24:12.776Z,16.70
2019-06-08T04:26:42.898Z,16.60
2019-06-08T04:29:11.370Z,16.60
2019-06-08T04:31:39.811Z,16.50
2019-06-08T04:34:08.314Z,16.50
2019-06-08T04:36:36.759Z,16.60
2019-06-08T04:39:07.722Z,16.50
2019-06-08T04:41:36.170Z,16.50
2019-06-08T04:44:04.674Z,16.50
2019-06-08T04:46:33.123Z,16.50
2019-06-08T04:49:01.588Z,16.50
2019-06-08T04:51:30.099Z,16.50
2019-06-08T04:53:58.539Z,16.70
2019-06-08T04:56:26.979Z,16.80
2019-06-08T04:58:55.426Z,16.70
2019-06-08T05:01:23.911Z,16.60
2019-06-08T05:03:52.361Z,16.60
2019-06-08T05:06:20.808Z,16.60
2019-06-08T05:08:49.566Z,16.60
2019-06-08T05:11:18.282Z,16.50
2019-06-08T05:13:47.680Z,16.60
2019-06-08T05:16:16.630Z,17.50
2019-06-08T05:18:45.332Z,16.90
2019-06-08T05:21:13.789Z,17.10
2019-06-08T05:23:43.393Z,17.00
2019-06-08T05:26:11.947Z,17.00
2019-06-08T05:28:41.259Z,17.00
2019-06-08T05:31:09.809Z,17.00
2019-06-08T05:33:39.192Z,16.90
2019-06-08T05:36:07.785Z,17.10
2019-06-08T05:38:36.426Z,17.30
2019-06-08T05:41:04.883Z,17.20
2019-06-08T05:43:33.328Z,17.20
2019-06-08T05:46:01.785Z,17.20
2019-06-08T05:48:30.221Z,17.40
2019-06-08T05:51:03.937Z,17.60
2019-06-08T05:53:28.819Z,18.30
2019-06-08T05:55:57.273Z,18.70
2019-06-08T05:58:25.711Z,18.80
2019-06-08T06:00:54.162Z,18.70
2019-06-08T06:03:22.602Z,18.50
2019-06-08T06:05:51.050Z,18.30
2019-06-08T06:08:19.571Z,18.20
2019-06-08T06:10:48.927Z,18.10
2019-06-08T06:13:17.439Z,18.10
2019-06-08T06:15:47.096Z,18.10
2019-06-08T06:18:15.723Z,18.20
2019-06-08T06:20:45.365Z,18.10
2019-06-08T06:23:13.920Z,18.00
2019-06-08T06:25:43.355Z,18.00
2019-06-08T06:28:11.918Z,18.10
2019-06-08T06:30:41.503Z,18.30
2019-06-08T06:33:10.046Z,18.40
2019-06-08T06:35:38.475Z,18.50
2019-06-08T06:38:06.917Z,18.70
2019-06-08T06:40:35.354Z,18.80
2019-06-08T06:43:03.874Z,19.10
2019-06-08T06:45:32.301Z,19.20
2019-06-08T06:48:00.757Z,19.20
2019-06-08T06:50:29.192Z,19.20
2019-06-08T06:52:57.643Z,19.20
2019-06-08T06:55:26.087Z,19.20
2019-06-08T06:57:54.573Z,19.20
2019-06-08T07:00:32.772Z,19.20
2019-06-08T07:03:01.689Z,19.30
2019-06-08T07:05:30.119Z,19.30
2019-06-08T07:07:58.579Z,19.20
2019-06-08T07:10:27.014Z,19.30
2019-06-08T07:12:55.466Z,19.50
2019-06-08T07:15:28.182Z,19.60
2019-06-08T07:17:58.574Z,19.90
2019-06-08T07:20:27.262Z,20.10
2019-06-08T07:22:55.718Z,19.90
2019-06-08T07:25:24.143Z,20.00
2019-06-08T07:27:52.679Z,20.00
2019-06-08T07:30:21.496Z,19.80
2019-06-08T07:32:50.947Z,19.70
2019-06-08T07:35:19.547Z,19.80
2019-06-08T07:37:48.980Z,20.00
2019-06-08T07:40:18.195Z,20.10
2019-06-08T07:42:47.850Z,20.30
2019-06-08T07:45:16.891Z,20.40
2019-06-08T07:47:45.360Z,20.30
2019-06-08T07:50:14.535Z,20.20
2019-06-08T07:52:42.989Z,20.20
2019-06-08T07:55:11.906Z,20.10
2019-06-08T07:57:40.783Z,20.00
2019-06-08T08:00:09.943Z,19.70
2019-06-08T08:02:38.422Z,19.50
2019-06-08T08:05:07.398Z,19.30
2019-06-08T08:07:35.874Z,19.20
2019-06-08T08:10:09.023Z,19.00
2019-06-08T08:12:37.650Z,19.00
2019-06-08T08:15:09.421Z,19.00
2019-06-08T08:17:37.882Z,18.90
2019-06-08T08:20:08.210Z,19.00
2019-06-08T08:22:38.242Z,18.90
2019-06-08T08:25:10.685Z,19.30
2019-06-08T08:27:39.149Z,19.30
2019-06-08T08:30:08.460Z,19.20
2019-06-08T08:32:38.063Z,19.10
2019-06-08T08:35:08.767Z,19.00
2019-06-08T08:37:38.039Z,19.00
2019-06-08T08:40:07.866Z,19.10
2019-06-08T08:42:38.710Z,19.10
2019-06-08T08:45:08.659Z,19.10
2019-06-08T08:47:38.785Z,19.10
2019-06-08T08:50:08.556Z,19.20
2019-06-08T08:52:40.434Z,19.20
2019-06-08T08:55:08.266Z,19.10
2019-06-08T08:57:38.592Z,19.20
2019-06-08T09:00:09.260Z,19.00
2019-06-08T09:02:37.717Z,19.10
2019-06-08T09:05:08.341Z,19.00
2019-06-08T09:07:38.461Z,18.90
2019-06-08T09:10:10.759Z,18.90
2019-06-08T09:12:37.710Z,19.00
2019-06-08T09:15:08.557Z,19.00
2019-06-08T09:17:38.806Z,19.00
2019-06-08T09:20:13.058Z,19.30
2019-06-08T09:22:52.883Z,19.30
2019-06-08T09:25:09.062Z,19.40
2019-06-08T09:27:38.296Z,19.30
2019-06-08T09:30:08.328Z,19.00
2019-06-08T09:32:38.239Z,19.00
2019-06-08T09:35:09.121Z,18.90
2019-06-08T09:37:37.628Z,18.80
2019-06-08T09:40:06.393Z,18.90
2019-06-08T09:42:34.904Z,18.90
2019-06-08T09:45:05.735Z,19.00
2019-06-08T09:47:37.939Z,19.20
2019-06-08T09:50:09.247Z,19.30
2019-06-08T09:52:40.980Z,19.40
2019-06-08T09:55:09.553Z,19.40
2019-06-08T09:57:38.524Z,19.50
2019-06-08T10:00:15.418Z,19.40
2019-06-08T10:02:38.281Z,19.30
2019-06-08T10:05:07.041Z,19.10
2019-06-08T10:07:38.524Z,19.20
2019-06-08T10:10:09.772Z,19.10
2019-06-08T10:12:40.951Z,19.10
2019-06-08T10:15:10.016Z,19.10
2019-06-08T10:17:38.472Z,19.10
2019-06-08T10:20:09.992Z,18.80
2019-06-08T10:22:38.317Z,19.10
2019-06-08T10:25:10.793Z,19.10
2019-06-08T10:27:38.573Z,19.10
2019-06-08T10:30:10.133Z,19.00
2019-06-08T10:32:39.005Z,19.00
2019-06-08T10:35:10.524Z,18.90
2019-06-08T10:37:38.545Z,19.10
2019-06-08T10:40:07.857Z,19.20
2019-06-08T10:42:39.871Z,19.20
2019-06-08T10:45:12.494Z,19.00
2019-06-08T10:47:38.159Z,18.80
2019-06-08T10:50:15.125Z,18.90
2019-06-08T10:52:40.478Z,19.30
2019-06-08T10:55:10.489Z,19.10
2019-06-08T10:57:39.478Z,19.30
2019-06-08T11:00:24.014Z,19.30
2019-06-08T11:02:52.344Z,19.20
2019-06-08T11:05:20.848Z,19.50
2019-06-08T11:07:49.293Z,19.70
2019-06-08T11:10:19.093Z,20.00
2019-06-08T11:12:48.540Z,20.00
2019-06-08T11:15:17.313Z,20.30
2019-06-08T11:17:45.761Z,20.40
2019-06-08T11:20:14.267Z,20.50
2019-06-08T11:22:42.719Z,20.60
2019-06-08T11:25:16.090Z,20.60
2019-06-08T11:27:41.564Z,20.70
2019-06-08T11:30:20.073Z,20.30
2019-06-08T11:32:40.803Z,20.40
2019-06-08T11:35:12.352Z,20.50
2019-06-08T11:37:40.901Z,20.70
2019-06-08T11:40:12.387Z,20.70
2019-06-08T11:42:40.097Z,20.60
2019-06-08T11:45:11.126Z,20.70
2019-06-08T11:47:39.531Z,20.90
2019-06-08T11:50:11.655Z,21.10
2019-06-08T11:52:38.503Z,21.20
2019-06-08T11:55:10.968Z,21.30
2019-06-08T11:57:40.423Z,21.20
2019-06-08T12:00:23.484Z,21.10
2019-06-08T12:02:41.304Z,21.10
2019-06-08T12:05:12.434Z,21.20
2019-06-08T12:07:40.285Z,21.10
2019-06-08T12:10:10.515Z,20.80
2019-06-08T12:12:38.895Z,20.80
2019-06-08T12:15:11.201Z,20.80
2019-06-08T12:17:37.634Z,20.80
2019-06-08T12:20:08.633Z,20.90
2019-06-08T12:22:37.715Z,21.00
2019-06-08T12:25:08.172Z,21.10
2019-06-08T12:27:40.016Z,21.10
2019-06-08T12:30:12.048Z,21.10
2019-06-08T12:32:37.271Z,21.10
2019-06-08T12:35:08.189Z,21.10
2019-06-08T12:37:38.721Z,21.10
2019-06-08T12:40:09.747Z,21.50
2019-06-08T12:42:38.213Z,21.80
2019-06-08T12:45:07.370Z,21.70
2019-06-08T12:47:37.902Z,21.60
2019-06-08T12:50:09.020Z,21.60
2019-06-08T12:52:39.293Z,21.70
2019-06-08T12:55:14.427Z,21.80
2019-06-08T12:57:39.146Z,21.80
2019-06-08T13:00:10.264Z,21.80
2019-06-08T13:02:39.492Z,21.80
2019-06-08T13:05:12.443Z,21.80
2019-06-08T13:07:39.398Z,21.80
2019-06-08T13:10:08.839Z,21.70
2019-06-08T13:12:40.522Z,21.70
2019-06-08T13:15:08.503Z,21.80
2019-06-08T13:17:38.295Z,21.90
2019-06-08T13:20:22.194Z,22.00
2019-06-08T13:22:49.901Z,22.00
2019-06-08T13:25:31.106Z,22.00
2019-06-08T13:27:49.150Z,22.10
2019-06-08T13:30:22.592Z,22.20
2019-06-08T13:32:48.340Z,22.10
2019-06-08T13:35:19.140Z,22.00
2019-06-08T13:37:47.477Z,22.00
2019-06-08T13:40:19.925Z,22.20
2019-06-08T13:42:50.902Z,22.40
2019-06-08T13:45:18.984Z,22.40
2019-06-08T13:47:50.443Z,22.30
2019-06-08T13:50:20.398Z,22.40
2019-06-08T13:52:48.719Z,22.30
2019-06-08T13:55:36.493Z,22.10
2019-06-08T13:57:49.201Z,22.10
2019-06-08T14:00:19.205Z,22.10
2019-06-08T14:02:48.488Z,22.20
2019-06-08T14:05:25.739Z,22.30
2019-06-08T14:07:50.450Z,22.40
2019-06-08T14:10:22.922Z,22.40
2019-06-08T14:12:52.168Z,22.50
2019-06-08T14:15:21.429Z,22.50
2019-06-08T14:17:49.911Z,22.60
2019-06-08T14:20:23.246Z,22.50
2019-06-08T14:22:51.590Z,22.40
2019-06-08T14:25:21.737Z,22.30
2019-06-08T14:27:50.235Z,22.30
2019-06-08T14:30:20.564Z,22.30
2019-06-08T14:32:49.212Z,22.30
2019-06-08T14:35:20.626Z,22.30
2019-06-08T14:37:48.224Z,22.20
2019-06-08T14:40:17.306Z,22.20
2019-06-08T14:42:48.354Z,22.10
2019-06-08T14:45:18.169Z,22.00
2019-06-08T14:47:47.566Z,21.90
2019-06-08T14:50:18.488Z,22.00
2019-06-08T14:52:47.921Z,22.10
2019-06-08T14:55:18.746Z,21.90
2019-06-08T14:57:48.175Z,21.90
2019-06-08T15:00:21.285Z,22.00
2019-06-08T15:02:50.016Z,22.00
2019-06-08T15:05:19.850Z,22.10
2019-06-08T15:07:48.688Z,22.10
2019-06-08T15:10:18.213Z,22.00
2019-06-08T15:12:48.904Z,21.90
2019-06-08T15:15:18.411Z,21.80
2019-06-08T15:17:47.822Z,21.90
2019-06-08T15:20:17.635Z,22.00
2019-06-08T15:22:46.155Z,22.10
2019-06-08T15:25:14.760Z,22.20
2019-06-08T15:27:43.214Z,22.10
2019-06-08T15:30:12.286Z,22.10
2019-06-08T15:32:40.775Z,22.10
2019-06-08T15:35:09.386Z,22.10
2019-06-08T15:37:40.786Z,22.00
2019-06-08T15:40:08.470Z,22.00
2019-06-08T15:42:37.530Z,21.90
2019-06-08T15:45:08.355Z,21.80
2019-06-08T15:47:40.582Z,21.80
2019-06-08T15:50:08.820Z,21.80
2019-06-08T15:52:38.065Z,21.70
2019-06-08T15:55:10.901Z,21.50
2019-06-08T15:57:40.809Z,21.40
2019-06-08T16:00:10.188Z,21.40
2019-06-08T16:02:39.151Z,21.40
2019-06-08T16:05:08.096Z,21.50
2019-06-08T16:07:36.559Z,21.20
2019-06-08T16:10:08.259Z,21.00
2019-06-08T16:12:36.703Z,20.90
2019-06-08T16:15:08.010Z,21.00
2019-06-08T16:17:36.466Z,21.10
2019-06-08T16:20:05.547Z,21.20
2019-06-08T16:22:34.157Z,21.20
2019-06-08T16:25:02.591Z,21.30
2019-06-08T16:27:32.133Z,21.10
2019-06-08T16:30:00.666Z,20.90
2019-06-08T16:32:29.279Z,20.80
2019-06-08T16:34:57.748Z,20.80
2019-06-08T16:37:27.397Z,20.70
2019-06-08T16:39:55.904Z,20.70
2019-06-08T16:42:24.381Z,20.80
2019-06-08T16:44:52.885Z,20.80
2019-06-08T16:47:21.348Z,20.90
2019-06-08T16:49:49.774Z,20.90
2019-06-08T16:52:18.328Z,20.80
2019-06-08T16:54:46.849Z,20.80
2019-06-08T16:57:15.332Z,20.70
2019-06-08T16:59:43.774Z,20.70
2019-06-08T17:02:15.581Z,20.70
2019-06-08T17:04:42.391Z,20.80
2019-06-08T17:07:10.831Z,20.70
2019-06-08T17:09:40.052Z,20.70
2019-06-08T17:12:08.709Z,20.60
2019-06-08T17:14:38.361Z,20.70
2019-06-08T17:17:07.155Z,20.70
2019-06-08T17:19:36.277Z,20.70
2019-06-08T17:22:04.782Z,20.70
2019-06-08T17:24:34.442Z,20.60
2019-06-08T17:27:03.060Z,20.50
2019-06-08T17:29:32.726Z,20.40
2019-06-08T17:32:01.325Z,20.60
2019-06-08T17:34:29.846Z,20.60
2019-06-08T17:36:58.381Z,20.50
2019-06-08T17:39:29.368Z,20.40
2019-06-08T17:41:56.989Z,20.30
2019-06-08T17:44:25.448Z,20.30
2019-06-08T17:46:53.892Z,20.30
2019-06-08T17:49:22.343Z,20.20
2019-06-08T17:51:50.770Z,20.20
2019-06-08T17:54:19.221Z,20.10
2019-06-08T17:56:47.645Z,20.00
2019-06-08T17:59:16.299Z,20.00
2019-06-08T18:01:44.786Z,19.90
2019-06-08T18:04:13.241Z,20.00
2019-06-08T18:06:43.005Z,19.90
2019-06-08T18:09:11.913Z,19.80
2019-06-08T18:11:42.283Z,19.80
2019-06-08T18:14:11.226Z,19.80
2019-06-08T18:16:42.139Z,19.70
2019-06-08T18:19:18.535Z,19.70
2019-06-08T18:21:47.349Z,19.60
2019-06-08T18:24:17.514Z,19.60
2019-06-08T18:26:47.495Z,19.70
2019-06-08T18:29:18.167Z,19.80
2019-06-08T18:31:48.087Z,19.70
2019-06-08T18:34:17.816Z,19.70
2019-06-08T18:36:47.932Z,19.60
2019-06-08T18:39:18.018Z,19.50
2019-06-08T18:41:48.393Z,19.50
2019-06-08T18:44:17.494Z,19.40
2019-06-08T18:46:48.110Z,19.30
2019-06-08T18:49:17.916Z,19.20
2019-06-08T18:51:49.040Z,19.20
2019-06-08T18:54:18.836Z,19.20
2019-06-08T18:56:48.816Z,19.10
2019-06-08T18:59:18.470Z,19.10
2019-06-08T19:01:49.487Z,19.00
2019-06-08T19:04:17.311Z,19.00
2019-06-08T19:06:48.789Z,19.00
2019-06-08T19:09:17.222Z,19.00
2019-06-08T19:11:48.420Z,18.90
2019-06-08T19:14:17.958Z,18.90
2019-06-08T19:16:50.843Z,18.80
2019-06-08T19:19:16.176Z,18.80
2019-06-08T19:21:45.001Z,18.80
2019-06-08T19:24:13.551Z,18.80
2019-06-08T19:26:43.180Z,18.80
2019-06-08T19:29:12.156Z,18.70
2019-06-08T19:31:42.279Z,18.70
2019-06-08T19:34:10.775Z,18.60
2019-06-08T19:36:41.332Z,18.60
2019-06-08T19:39:09.395Z,18.50
2019-06-08T19:41:39.440Z,18.50
2019-06-08T19:44:08.058Z,18.60
2019-06-08T19:46:36.504Z,18.50
2019-06-08T19:49:04.981Z,18.50
2019-06-08T19:51:33.475Z,18.50
2019-06-08T19:54:01.912Z,18.50
2019-06-08T19:56:30.357Z,18.50
2019-06-08T19:59:04.036Z,18.50
2019-06-08T20:01:28.972Z,18.40
2019-06-08T20:03:58.042Z,18.30
2019-06-08T20:06:27.938Z,18.40
2019-06-08T20:08:57.489Z,18.30
2019-06-08T20:11:26.193Z,18.20
2019-06-08T20:13:54.630Z,18.10
2019-06-08T20:16:23.130Z,18.10
2019-06-08T20:18:52.923Z,18.00
2019-06-08T20:21:21.493Z,18.00
2019-06-08T20:23:50.962Z,18.00
2019-06-08T20:26:19.511Z,18.00
2019-06-08T20:28:51.249Z,18.00
2019-06-08T20:31:18.173Z,17.90
2019-06-08T20:33:50.230Z,18.00
2019-06-08T20:36:17.478Z,17.90
2019-06-08T20:38:47.419Z,17.90
2019-06-08T20:41:18.141Z,17.90
2019-06-08T20:43:49.920Z,18.00
2019-06-08T20:46:17.130Z,18.00
2019-06-08T20:48:48.387Z,17.90
2019-06-08T20:51:17.243Z,17.80
2019-06-08T20:53:49.061Z,17.70
2019-06-08T20:56:17.348Z,17.80
2019-06-08T20:58:47.912Z,17.80
2019-06-08T21:01:18.036Z,17.80
2019-06-08T21:03:48.242Z,17.80
2019-06-08T21:06:17.168Z,17.90
2019-06-08T21:08:46.616Z,17.80
2019-06-08T21:11:17.641Z,17.80
2019-06-08T21:13:49.308Z,17.80
2019-06-08T21:16:18.218Z,17.70
2019-06-08T21:18:46.853Z,17.70
2019-06-08T21:21:17.458Z,17.70
2019-06-08T21:23:48.908Z,17.60
2019-06-08T21:26:17.874Z,17.60
2019-06-08T21:28:49.835Z,17.60
2019-06-08T21:31:17.747Z,17.70
2019-06-08T21:33:49.083Z,17.70
2019-06-08T21:36:18.193Z,17.60
2019-06-08T21:38:49.424Z,17.50
2019-06-08T21:41:17.268Z,17.40
2019-06-08T21:43:45.751Z,17.50
2019-06-08T21:46:14.177Z,17.50
2019-06-08T21:48:42.639Z,17.50
2019-06-08T21:51:11.081Z,17.40
2019-06-08T21:53:39.513Z,17.50
2019-06-08T21:56:08.080Z,17.50
2019-06-08T21:58:37.790Z,17.50
2019-06-08T22:01:07.361Z,17.40
2019-06-08T22:03:38.017Z,17.40
2019-06-08T22:06:07.963Z,17.40
2019-06-08T22:08:37.625Z,17.40
2019-06-08T22:11:08.605Z,17.40
2019-06-08T22:13:37.474Z,17.30
2019-06-08T22:16:08.211Z,17.30
2019-06-08T22:18:38.007Z,17.30
2019-06-08T22:21:08.141Z,17.20
2019-06-08T22:23:36.531Z,17.20
2019-06-08T22:26:04.954Z,17.10
2019-06-08T22:28:33.382Z,17.10
2019-06-08T22:31:01.904Z,17.10
2019-06-08T22:33:30.347Z,17.00
2019-06-08T22:35:58.875Z,17.00
2019-06-08T22:38:27.309Z,16.90
2019-06-08T22:40:57.623Z,16.80
2019-06-08T22:43:25.913Z,16.80
2019-06-08T22:45:54.460Z,16.70
2019-06-08T22:48:22.981Z,16.80
2019-06-08T22:50:53.315Z,16.80
2019-06-08T22:53:21.594Z,16.80
2019-06-08T22:55:50.050Z,16.90
2019-06-08T22:58:19.171Z,16.90
2019-06-08T23:00:52.589Z,16.90
2019-06-08T23:03:18.600Z,17.00
2019-06-08T23:05:47.671Z,16.90
2019-06-08T23:08:17.537Z,16.90
2019-06-08T23:10:48.283Z,16.90
2019-06-08T23:13:17.971Z,16.70
2019-06-08T23:15:47.838Z,16.60
2019-06-08T23:18:17.918Z,16.50
2019-06-08T23:20:47.953Z,16.50
2019-06-08T23:23:17.886Z,16.50
2019-06-08T23:25:47.857Z,16.50
2019-06-08T23:28:18.117Z,16.60
2019-06-08T23:30:47.669Z,16.50
2019-06-08T23:33:18.902Z,16.50
2019-06-08T23:36:21.692Z,16.50
2019-06-08T23:38:17.346Z,16.50
2019-06-08T23:40:47.462Z,16.50
2019-06-08T23:43:18.120Z,16.50
2019-06-08T23:45:47.485Z,16.50
2019-06-08T23:48:17.435Z,16.50
2019-06-08T23:50:47.448Z,16.50
2019-06-08T23:53:18.060Z,16.50
2019-06-08T23:55:47.929Z,16.40
2019-06-08T23:58:17.536Z,16.40
